Time;durP1;ratioP1;P1;durP2;ratioP2;P2;SDS_P1;SDS_P2;PMS_P1;PMS_P2;Temp;Humidity;BMP_temperature;BMP_pressure;BME280_temperature;BME280_humidity;BME280_pressure;Samples;Min_cycle;Max_cycle;Signal;HPM_P1;HPM_P2
2023/10/22 00:02:10;;;;;;;2.83;0.90;;;;;;;14.59;54.30;97957.00;5091730;28;20027;-49
2023/10/22 00:04:38;;;;;;;3.03;1.48;;;;;;;14.50;54.66;97953.94;5092984;28;20074;-48
2023/10/22 00:07:05;;;;;;;7.90;3.70;;;;;;;14.38;54.77;97951.41;5093204;28;20073;-48
2023/10/22 00:09:30;;;;;;;20.83;17.75;;;;;;;14.26;55.18;97957.81;5092631;28;20028;-48
2023/10/22 00:11:56;;;;;;;5.45;2.20;;;;;;;14.08;55.49;97961.50;5091579;28;20032;-48
2023/10/22 00:14:22;;;;;;;1.77;0.85;;;;;;;13.95;56.17;97965.28;5092827;28;20035;-48
2023/10/22 00:16:48;;;;;;;5.72;0.77;;;;;;;13.85;56.35;97973.03;5092713;28;20486;-48
2023/10/22 00:19:13;;;;;;;4.40;0.80;;;;;;;13.80;56.80;97973.72;5092783;28;20036;-48
2023/10/22 00:21:39;;;;;;;3.08;1.00;;;;;;;13.76;56.89;97968.16;5091381;28;20019;-48
2023/10/22 00:24:05;;;;;;;4.63;0.80;;;;;;;13.69;57.43;97969.34;5091332;28;20058;-48
2023/10/22 00:26:31;;;;;;;5.55;0.73;;;;;;;13.58;57.70;97965.72;5091285;28;20020;-48
2023/10/22 00:28:56;;;;;;;6.90;1.00;;;;;;;13.44;58.14;97973.13;5091235;28;20035;-48
2023/10/22 00:31:23;;;;;;;3.30;1.10;;;;;;;13.30;58.46;97962.06;5092548;28;20020;-48
2023/10/22 00:33:48;;;;;;;1.92;0.80;;;;;;;13.22;59.23;97970.31;5091197;28;20406;-48
2023/10/22 00:36:14;;;;;;;5.53;1.00;;;;;;;13.15;59.39;97965.19;5092414;28;20020;-48
2023/10/22 00:38:40;;;;;;;1.92;0.80;;;;;;;13.11;59.75;97971.94;5091180;28;20077;-48
2023/10/22 00:41:05;;;;;;;2.45;0.73;;;;;;;13.07;59.90;97972.66;5091410;28;20089;-48
2023/10/22 00:43:31;;;;;;;1.77;0.75;;;;;;;13.00;60.20;97972.81;5092421;28;20013;-48
2023/10/22 00:45:57;;;;;;;2.63;1.33;;;;;;;12.96;60.10;97975.09;5091000;28;20028;-48
2023/10/22 00:48:25;;;;;;;2.75;1.02;;;;;;;12.98;60.53;97980.13;5092507;28;20020;-48
2023/10/22 00:50:52;;;;;;;3.03;0.82;;;;;;;13.03;60.63;97987.34;5092456;28;20394;-48
2023/10/22 00:53:20;;;;;;;4.07;1.10;;;;;;;13.08;60.81;97990.03;5092274;28;20032;-48
2023/10/22 00:55:47;;;;;;;3.80;0.95;;;;;;;13.15;60.41;97988.09;5091665;28;20012;-48
2023/10/22 00:58:16;;;;;;;3.38;0.90;;;;;;;13.17;60.03;97994.72;5090800;28;20526;-48
2023/10/22 01:00:44;;;;;;;2.28;0.77;;;;;;;13.23;59.75;97994.84;5091995;28;20035;-48
2023/10/22 01:03:10;;;;;;;6.18;1.00;;;;;;;13.27;59.53;97995.97;5090739;28;20024;-48
2023/10/22 01:05:39;;;;;;;4.18;0.80;;;;;;;13.34;59.24;97989.56;5092040;28;20027;-48
2023/10/22 01:08:05;;;;;;;4.75;1.00;;;;;;;13.42;59.09;97998.94;5090595;28;20042;-48
2023/10/22 01:10:32;;;;;;;2.13;0.80;;;;;;;13.54;58.95;97996.22;5091669;28;20044;-48
2023/10/22 01:12:59;;;;;;;5.10;1.20;;;;;;;13.68;58.72;98007.28;5090659;28;20290;-48
2023/10/22 01:15:26;;;;;;;5.15;1.30;;;;;;;13.83;58.19;98012.03;5091896;28;20028;-48
2023/10/22 01:17:52;;;;;;;3.90;1.10;;;;;;;13.96;58.02;98007.25;5091958;28;20035;-48
2023/10/22 01:20:18;;;;;;;4.68;1.58;;;;;;;14.10;57.44;98012.19;5090569;28;20035;-48
2023/10/22 01:22:44;;;;;;;2.22;0.90;;;;;;;14.25;57.27;98004.53;5090603;28;20576;-48
2023/10/22 01:25:10;;;;;;;4.38;1.20;;;;;;;14.36;56.62;98011.56;5091866;28;20153;-48
2023/10/22 01:27:37;;;;;;;9.25;1.77;;;;;;;14.39;56.47;98010.28;5090583;28;20393;-48
2023/10/22 01:30:03;;;;;;;4.82;1.23;;;;;;;14.46;56.45;98015.41;5091737;28;20028;-48
2023/10/22 01:32:33;;;;;;;5.35;1.50;;;;;;;14.55;56.16;98016.59;5092049;28;20437;-48
2023/10/22 01:35:00;;;;;;;1.88;0.80;;;;;;;14.54;55.68;98015.78;5091851;28;20028;-48
2023/10/22 01:37:27;;;;;;;3.45;0.93;;;;;;;14.44;55.59;98013.00;5091774;28;20436;-48
2023/10/22 01:39:54;;;;;;;2.28;0.85;;;;;;;14.35;55.75;98014.47;5091712;28;20056;-48
2023/10/22 01:42:20;;;;;;;2.33;0.93;;;;;;;14.27;55.94;98018.28;5090291;28;20033;-48
2023/10/22 01:44:45;;;;;;;3.40;1.42;;;;;;;14.22;56.37;98015.56;5091708;28;20031;-48
2023/10/22 01:47:11;;;;;;;3.70;1.00;;;;;;;14.45;57.19;98016.44;5090294;28;20469;-48
2023/10/22 01:49:38;;;;;;;9.38;2.35;;;;;;;14.70;56.68;98018.66;5090156;28;20081;-48
2023/10/22 01:52:04;;;;;;;4.95;2.13;;;;;;;14.77;56.43;98014.03;5091576;28;20494;-48
2023/10/22 01:54:30;;;;;;;5.05;1.10;;;;;;;14.91;55.89;98022.38;5091515;28;20035;-48
2023/10/22 01:56:55;;;;;;;2.60;0.82;;;;;;;14.91;55.38;98017.09;5090160;28;20024;-48
2023/10/22 01:59:21;;;;;;;3.58;1.45;;;;;;;14.86;55.33;98012.53;5091524;28;20055;-48
2023/10/22 02:01:47;;;;;;;8.48;1.77;;;;;;;14.64;55.13;98015.16;5091418;28;20021;-48
2023/10/22 02:04:12;;;;;;;7.53;2.20;;;;;;;14.51;56.03;98018.91;5090144;28;20387;-48
2023/10/22 02:06:38;;;;;;;6.40;1.90;;;;;;;14.76;56.36;98021.13;5092128;28;20073;-48
2023/10/22 02:09:04;;;;;;;3.50;1.05;;;;;;;14.86;55.37;98017.81;5095446;28;20038;-48
2023/10/22 02:11:30;;;;;;;4.57;1.05;;;;;;;14.60;55.33;98021.16;5095040;28;20520;-48
2023/10/22 02:13:56;;;;;;;4.00;1.73;;;;;;;14.52;56.17;98025.00;5095186;28;20024;-48
2023/10/22 02:16:23;;;;;;;5.30;2.03;;;;;;;14.65;56.09;98016.75;5095031;28;20028;-48
2023/10/22 02:18:49;;;;;;;5.82;2.55;;;;;;;14.95;55.60;98024.31;5093781;28;20047;-48
2023/10/22 02:21:15;;;;;;;2.97;1.33;;;;;;;15.17;54.89;98021.66;5095124;28;20062;-48
2023/10/22 02:23:41;;;;;;;0.70;0.50;;;;;;;15.04;52.81;98021.22;5094925;28;20024;-48
2023/10/22 02:26:07;;;;;;;3.38;1.00;;;;;;;14.58;54.26;98021.41;5094968;28;20078;-48
2023/10/22 02:28:33;;;;;;;2.15;0.85;;;;;;;14.12;56.07;98032.03;5094821;28;20020;-48
2023/10/22 02:30:59;;;;;;;4.80;0.90;;;;;;;13.64;57.65;98025.41;5095145;28;20031;-48
2023/10/22 02:33:25;;;;;;;3.13;0.80;;;;;;;13.23;59.01;98040.41;5094806;28;20020;-48
2023/10/22 02:35:51;;;;;;;3.13;0.90;;;;;;;12.92;60.34;98031.91;5094815;28;20020;-48
2023/10/22 02:38:18;;;;;;;4.93;1.13;;;;;;;12.67;62.15;98044.50;5094748;28;20103;-48
2023/10/22 02:40:49;;;;;;;4.30;1.00;;;;;;;12.45;62.93;98042.44;5094728;28;20451;-48
2023/10/22 02:43:15;;;;;;;4.30;0.95;;;;;;;12.26;63.64;98044.38;5095016;28;20375;-48
2023/10/22 02:45:51;;;;;;;3.63;1.23;;;;;;;12.11;64.70;98044.81;5094585;28;20070;-48
2023/10/22 02:48:17;;;;;;;3.08;2.03;;;;;;;12.31;65.35;98052.38;5094523;28;20394;-48
2023/10/22 02:50:43;;;;;;;4.55;2.35;;;;;;;12.66;64.68;98056.09;5094481;28;20023;-48
2023/10/22 02:53:09;;;;;;;3.22;1.73;;;;;;;13.02;64.48;98048.94;5094492;28;20391;-48
2023/10/22 02:55:35;;;;;;;5.25;1.92;;;;;;;13.25;63.82;98045.47;5093166;28;20028;-48
2023/10/22 02:58:00;;;;;;;5.20;2.05;;;;;;;13.20;63.22;98046.16;5094410;28;20051;-48
2023/10/22 03:00:26;;;;;;;4.72;1.33;;;;;;;13.14;63.39;98039.19;5094357;28;20397;-48
2023/10/22 03:02:52;;;;;;;5.25;1.48;;;;;;;13.00;62.95;98041.28;5093010;28;20024;-48
2023/10/22 03:05:18;;;;;;;3.80;1.20;;;;;;;12.64;63.30;98050.25;5094252;28;20027;-48
2023/10/22 03:07:43;;;;;;;2.17;0.68;;;;;;;12.30;63.88;98050.78;5092867;28;20492;-48
2023/10/22 03:10:09;;;;;;;3.78;1.33;;;;;;;12.13;64.75;98055.09;5092653;28;20048;-48
2023/10/22 03:12:35;;;;;;;4.18;1.05;;;;;;;12.12;64.59;98050.88;5094060;28;20565;-48
2023/10/22 03:15:01;;;;;;;4.53;1.50;;;;;;;12.08;64.92;98060.25;5094046;28;20042;-48
2023/10/22 03:17:27;;;;;;;5.10;0.98;;;;;;;12.10;64.46;98058.19;5093617;28;20051;-48
2023/10/22 03:19:53;;;;;;;1.73;0.77;;;;;;;12.03;64.42;98060.91;5093884;28;20059;-48
2023/10/22 03:22:19;;;;;;;5.82;1.02;;;;;;;11.91;64.63;98060.06;5093950;28;20016;-48
2023/10/22 03:24:49;;;;;;;3.63;1.48;;;;;;;11.83;64.93;98062.97;5092557;28;20061;-48
2023/10/22 03:27:15;;;;;;;3.35;1.30;;;;;;;11.99;65.16;98057.13;5093845;28;20047;-48
2023/10/22 03:29:40;;;;;;;7.65;2.08;;;;;;;11.98;64.67;98071.31;5092398;28;20464;-47
2023/10/22 03:32:08;;;;;;;3.58;1.00;;;;;;;12.15;64.91;98072.28;5093776;28;20049;-48
2023/10/22 03:34:34;;;;;;;3.90;1.55;;;;;;;12.11;64.79;98071.13;5093669;28;20103;-48
2023/10/22 03:37:00;;;;;;;5.78;1.25;;;;;;;12.03;64.66;98068.78;5093648;28;20108;-48
2023/10/22 03:39:27;;;;;;;2.97;1.20;;;;;;;11.93;65.00;98068.53;5093559;28;20442;-48
2023/10/22 03:41:52;;;;;;;7.07;2.00;;;;;;;11.89;64.60;98080.53;5092158;28;20028;-48
2023/10/22 03:44:18;;;;;;;4.85;1.45;;;;;;;11.87;65.13;98074.66;5092142;28;20028;-48
2023/10/22 03:46:46;;;;;;;5.00;1.00;;;;;;;11.86;64.99;98080.94;5093413;28;20020;-48
2023/10/22 03:49:12;;;;;;;2.10;1.00;;;;;;;11.82;65.01;98085.06;5093268;28;20020;-48
2023/10/22 03:51:38;;;;;;;2.30;0.90;;;;;;;11.74;65.10;98089.59;5093886;28;20024;-48
2023/10/22 03:54:04;;;;;;;4.15;1.02;;;;;;;11.71;65.56;98086.59;5093267;28;20400;-48
2023/10/22 03:56:29;;;;;;;4.72;1.33;;;;;;;11.70;65.35;98088.44;5093202;28;20028;-48
2023/10/22 03:58:55;;;;;;;9.20;1.55;;;;;;;11.70;65.83;98088.44;5093240;28;20032;-48
2023/10/22 04:01:21;;;;;;;3.70;1.20;;;;;;;11.83;65.68;98094.53;5093136;28;20546;-48
2023/10/22 04:03:47;;;;;;;3.65;0.80;;;;;;;11.91;64.66;98089.81;5093059;28;20040;-48
2023/10/22 04:06:13;;;;;;;1.20;0.68;;;;;;;11.95;64.56;98104.13;5093318;28;20389;-48
2023/10/22 04:08:38;;;;;;;3.33;1.08;;;;;;;11.90;64.53;98105.81;5092942;28;20024;-48
2023/10/22 04:11:04;;;;;;;3.78;1.33;;;;;;;11.90;65.13;98097.91;5092822;28;20040;-48
2023/10/22 04:13:30;;;;;;;3.22;1.05;;;;;;;12.13;65.18;98099.81;5093144;28;20481;-48
2023/10/22 04:15:56;;;;;;;4.75;1.30;;;;;;;12.14;65.03;98096.97;5092908;28;20052;-48
2023/10/22 04:18:22;;;;;;;8.10;2.15;;;;;;;12.11;65.44;98097.44;5092844;28;20108;-48
2023/10/22 04:20:48;;;;;;;2.25;0.93;;;;;;;12.21;65.08;98096.06;5091564;28;20035;-48
2023/10/22 04:23:14;;;;;;;7.32;2.78;;;;;;;12.16;64.89;98108.06;5093011;28;20020;-47
2023/10/22 04:25:42;;;;;;;5.93;1.45;;;;;;;12.06;64.48;98109.63;5092599;28;20028;-48
2023/10/22 04:28:13;;;;;;;3.67;1.48;;;;;;;11.97;65.02;98109.13;5092623;28;20080;-48
2023/10/22 04:30:40;;;;;;;6.43;2.05;;;;;;;12.09;65.33;98119.69;5090522;28;20032;-48
2023/10/22 04:33:08;;;;;;;2.03;1.13;;;;;;;12.23;64.55;98115.06;5091199;28;20081;-48
2023/10/22 04:35:34;;;;;;;3.20;1.27;;;;;;;12.16;64.21;98115.16;5092483;28;20028;-48
2023/10/22 04:38:00;;;;;;;5.60;1.60;;;;;;;11.97;64.61;98115.22;5091204;28;20043;-48
2023/10/22 04:40:31;;;;;;;6.18;1.95;;;;;;;11.88;65.12;98119.13;5092444;28;20085;-48
2023/10/22 04:42:57;;;;;;;5.30;2.45;;;;;;;11.98;65.10;98124.69;5092527;28;20032;-48
2023/10/22 04:45:23;;;;;;;2.28;1.00;;;;;;;12.21;64.49;98122.38;5092393;28;20386;-48
2023/10/22 04:47:49;;;;;;;3.60;1.17;;;;;;;12.10;63.89;98119.47;5092557;28;20028;-48
2023/10/22 04:50:14;;;;;;;4.10;1.25;;;;;;;11.85;64.42;98121.41;5092191;28;20111;-48
2023/10/22 04:52:40;;;;;;;7.75;1.20;;;;;;;11.64;65.24;98120.06;5092269;28;20489;-48
2023/10/22 04:55:06;;;;;;;6.40;1.60;;;;;;;11.37;66.33;98129.06;5092221;28;20509;-48
2023/10/22 04:57:32;;;;;;;9.90;2.70;;;;;;;11.19;67.37;98131.69;5092127;28;20024;-48
2023/10/22 04:59:57;;;;;;;13.25;2.45;;;;;;;11.32;69.06;98123.63;5092123;28;20016;-48
2023/10/22 05:02:23;;;;;;;5.68;2.75;;;;;;;11.60;69.19;98128.38;5092166;28;20059;-51
2023/10/22 05:04:52;;;;;;;6.72;3.15;;;;;;;12.07;68.85;98127.00;5092403;28;20546;-48
2023/10/22 05:07:18;;;;;;;6.25;3.03;;;;;;;12.40;67.97;98126.53;5092104;28;20024;-48
2023/10/22 05:09:44;;;;;;;4.60;1.83;;;;;;;12.62;66.82;98126.81;5090314;28;20050;-48
2023/10/22 05:12:10;;;;;;;7.90;2.72;;;;;;;12.70;66.63;98125.69;5092014;28;20028;-48
2023/10/22 05:14:36;;;;;;;5.38;2.00;;;;;;;12.68;65.74;98130.38;5091963;28;20077;-48
2023/10/22 05:17:04;;;;;;;6.10;2.05;;;;;;;12.58;65.57;98131.72;5091976;28;20588;-48
2023/10/22 05:19:29;;;;;;;7.15;1.85;;;;;;;12.29;65.80;98135.19;5091838;28;20020;-48
2023/10/22 05:21:55;;;;;;;2.17;1.20;;;;;;;11.99;66.44;98136.84;5090614;28;20020;-47
2023/10/22 05:24:21;;;;;;;8.07;2.80;;;;;;;11.91;67.85;98137.13;5091859;28;20453;-48
2023/10/22 05:26:46;;;;;;;4.50;2.72;;;;;;;12.13;68.09;98134.81;5090479;28;20538;-48
2023/10/22 05:29:12;;;;;;;6.43;3.08;;;;;;;12.27;67.42;98132.78;5091793;28;20028;-48
2023/10/22 05:31:38;;;;;;;5.80;2.53;;;;;;;12.34;67.24;98136.13;5090434;28;20098;-48
2023/10/22 05:34:03;;;;;;;4.97;2.53;;;;;;;12.47;67.30;98139.59;5091794;28;20452;-48
2023/10/22 05:36:29;;;;;;;4.35;3.08;;;;;;;12.56;66.97;98140.88;5091746;28;20512;-48
2023/10/22 05:38:55;;;;;;;4.38;2.90;;;;;;;12.59;66.80;98137.78;5091742;28;20557;-48
2023/10/22 05:41:22;;;;;;;10.20;2.78;;;;;;;12.49;66.33;98138.31;5093639;28;20067;-48
2023/10/22 05:43:50;;;;;;;12.85;1.92;;;;;;;12.28;65.59;98136.25;5094531;28;20028;-48
2023/10/22 05:46:16;;;;;;;3.25;1.08;;;;;;;11.83;65.58;98141.84;5095699;28;20032;-48
2023/10/22 05:48:44;;;;;;;5.30;1.40;;;;;;;11.37;66.79;98139.56;5095517;28;20024;-48
2023/10/22 05:51:10;;;;;;;2.33;1.17;;;;;;;10.98;67.51;98146.00;5094368;28;20016;-48
2023/10/22 05:53:35;;;;;;;3.90;1.30;;;;;;;10.66;68.88;98134.75;5095679;28;20028;-48
2023/10/22 05:56:01;;;;;;;10.52;1.88;;;;;;;10.47;69.26;98149.66;5095583;28;20072;-48
2023/10/22 05:58:27;;;;;;;4.00;3.53;;;;;;;10.30;70.09;98154.59;5095539;28;20032;-48
2023/10/22 06:00:53;;;;;;;4.93;1.63;;;;;;;10.36;71.49;98154.56;5094248;28;20520;-48
2023/10/22 06:03:19;;;;;;;6.85;3.03;;;;;;;10.79;72.98;98159.09;5095551;28;20032;-48
2023/10/22 06:05:45;;;;;;;7.50;3.17;;;;;;;11.36;72.42;98164.22;5095348;28;20030;-48
2023/10/22 06:08:11;;;;;;;9.32;4.03;;;;;;;11.75;70.73;98161.34;5094039;28;20100;-48
2023/10/22 06:10:41;;;;;;;6.43;2.35;;;;;;;11.66;69.18;98163.50;5094958;28;20040;-48
2023/10/22 06:13:08;;;;;;;7.93;2.17;;;;;;;11.56;69.86;98157.94;5095317;28;20027;-48
2023/10/22 06:15:38;;;;;;;6.72;2.90;;;;;;;11.47;69.42;98164.50;5093903;28;20042;-48
2023/10/22 06:18:05;;;;;;;7.28;4.50;;;;;;;11.40;69.82;98169.84;5095297;28;20020;-48
2023/10/22 06:20:34;;;;;;;7.80;2.20;;;;;;;11.58;70.24;98176.94;5095155;28;20024;-47
2023/10/22 06:23:04;;;;;;;6.40;2.78;;;;;;;11.57;69.57;98177.97;5095124;28;20062;-48
2023/10/22 06:25:34;;;;;;;5.68;2.08;;;;;;;11.71;69.30;98194.38;5095235;28;20052;-48
2023/10/22 06:28:00;;;;;;;6.00;2.70;;;;;;;11.65;68.96;98196.06;5093631;28;20382;-47
2023/10/22 06:30:27;;;;;;;4.55;1.80;;;;;;;11.65;68.86;98187.34;5093652;28;20020;-48
2023/10/22 06:32:55;;;;;;;8.85;2.28;;;;;;;12.02;69.52;98182.91;5094860;28;20073;-48
2023/10/22 06:35:22;;;;;;;6.07;2.40;;;;;;;13.01;67.45;98184.31;5094769;28;20043;-48
2023/10/22 06:37:50;;;;;;;4.65;2.35;;;;;;;13.89;64.47;98182.53;5093506;28;20062;-47
2023/10/22 06:40:17;;;;;;;8.25;2.78;;;;;;;14.38;62.00;98180.28;5094707;28;20032;-47
2023/10/22 06:42:43;;;;;;;9.15;2.83;;;;;;;14.77;60.36;98183.09;5093415;28;20074;-48
2023/10/22 06:45:09;;;;;;;10.45;2.25;;;;;;;15.15;58.87;98177.06;5094675;28;20434;-48
2023/10/22 06:47:39;;;;;;;10.57;2.13;;;;;;;15.43;57.27;98177.94;5093317;28;20383;-47
2023/10/22 06:50:06;;;;;;;5.07;2.25;;;;;;;15.73;56.63;98182.06;5093487;28;20024;-48
2023/10/22 06:52:32;;;;;;;4.82;1.33;;;;;;;16.07;55.18;98187.22;5093646;28;20024;-48
2023/10/22 06:54:58;;;;;;;6.70;1.55;;;;;;;16.45;54.02;98186.28;5094558;28;20558;-48
2023/10/22 06:57:23;;;;;;;6.78;1.60;;;;;;;16.69;52.40;98185.97;5094303;28;20024;-48
2023/10/22 06:59:52;;;;;;;4.60;1.23;;;;;;;16.75;52.18;98183.09;5094446;28;20028;-48
2023/10/22 07:02:18;;;;;;;5.03;2.58;;;;;;;16.86;52.38;98193.81;5094421;28;20046;-48
2023/10/22 07:04:44;;;;;;;5.22;2.28;;;;;;;17.19;51.58;98192.75;5094331;28;20017;-48
2023/10/22 07:07:10;;;;;;;7.63;2.88;;;;;;;17.72;50.57;98195.41;5092911;28;20032;-48
2023/10/22 07:09:37;;;;;;;2.72;1.27;;;;;;;18.17;49.00;98191.38;5093887;28;20121;-48
2023/10/22 07:12:03;;;;;;;7.07;3.25;;;;;;;18.48;47.91;98191.41;5092985;28;20401;-48
2023/10/22 07:14:29;;;;;;;8.07;2.67;;;;;;;18.71;47.34;98198.06;5093986;28;20040;-48
2023/10/22 07:16:55;;;;;;;4.70;2.55;;;;;;;18.75;47.39;98197.28;5094048;28;20074;-47
2023/10/22 07:19:21;;;;;;;3.80;1.33;;;;;;;18.76;46.84;98196.22;5094017;28;20490;-46
2023/10/22 07:21:46;;;;;;;4.25;2.00;;;;;;;18.66;46.98;98198.09;5093979;28;20034;-46
2023/10/22 07:24:12;;;;;;;2.95;1.67;;;;;;;18.38;47.59;98194.84;5092651;28;20512;-46
2023/10/22 07:26:38;;;;;;;6.55;3.05;;;;;;;17.91;48.66;98201.91;5093877;28;20020;-46
2023/10/22 07:29:04;;;;;;;6.15;2.65;;;;;;;17.55;49.21;98204.34;5093783;28;20020;-46
2023/10/22 07:31:29;;;;;;;2.88;1.30;;;;;;;17.43;49.24;98209.06;5092468;28;20486;-46
2023/10/22 07:33:55;;;;;;;7.13;1.73;;;;;;;17.66;49.24;98213.16;5093760;28;20043;-46
2023/10/22 07:36:21;;;;;;;7.90;2.65;;;;;;;17.99;48.91;98213.06;5094130;28;20086;-46
2023/10/22 07:38:51;;;;;;;5.45;1.40;;;;;;;18.34;48.13;98199.09;5093687;28;20031;-46
2023/10/22 07:41:18;;;;;;;7.63;2.35;;;;;;;18.60;47.52;98207.91;5093529;28;20036;-46
2023/10/22 07:43:44;;;;;;;15.35;2.50;;;;;;;18.85;46.51;98203.69;5093471;28;20022;-46
2023/10/22 07:46:10;;;;;;;6.57;1.90;;;;;;;19.02;46.32;98201.56;5092434;28;20037;-46
2023/10/22 07:48:37;;;;;;;6.03;1.17;;;;;;;19.44;45.47;98205.78;5092043;28;20081;-46
2023/10/22 07:51:17;;;;;;;6.63;2.85;;;;;;;20.00;44.80;98198.66;5093400;28;20020;-46
2023/10/22 07:53:43;;;;;;;7.45;1.63;;;;;;;20.42;42.68;98205.38;5093427;28;20028;-46
2023/10/22 07:56:10;;;;;;;2.35;1.55;;;;;;;20.78;41.96;98208.59;5093293;28;20035;-46
2023/10/22 07:58:37;;;;;;;5.63;1.98;;;;;;;21.05;41.61;98215.34;5093200;28;20056;-46
2023/10/22 08:01:06;;;;;;;3.65;1.48;;;;;;;21.67;40.79;98216.34;5091887;28;20074;-46
2023/10/22 08:03:33;;;;;;;7.07;2.22;;;;;;;22.53;39.02;98219.00;5093147;28;20028;-46
2023/10/22 08:06:00;;;;;;;7.25;1.75;;;;;;;23.20;37.43;98214.50;5093125;28;20032;-46
2023/10/22 08:08:26;;;;;;;5.30;2.08;;;;;;;23.35;37.43;98229.50;5092971;28;20531;-46
2023/10/22 08:10:57;;;;;;;6.15;2.92;;;;;;;23.62;36.92;98231.41;5091483;28;20394;-46
2023/10/22 08:13:23;;;;;;;5.60;2.03;;;;;;;24.00;37.02;98232.00;5092976;28;20375;-46
2023/10/22 08:15:49;;;;;;;4.07;2.05;;;;;;;24.78;36.10;98237.31;5091557;28;20063;-46
2023/10/22 08:18:15;;;;;;;4.93;2.60;;;;;;;25.26;35.21;98228.66;5091541;28;20032;-46
2023/10/22 08:20:41;;;;;;;4.80;1.70;;;;;;;25.29;34.11;98229.91;5074624;28;20089;-46
2023/10/22 08:23:07;;;;;;;8.57;2.53;;;;;;;25.65;34.08;98240.50;5091503;28;20047;-46
2023/10/22 08:25:33;;;;;;;6.60;2.22;;;;;;;25.93;33.25;98243.00;5091388;28;20070;-46
2023/10/22 08:27:59;;;;;;;4.65;1.70;;;;;;;26.04;32.94;98238.94;5091618;28;20040;-47
2023/10/22 08:30:27;;;;;;;8.13;2.13;;;;;;;25.60;32.85;98251.41;5074352;28;20379;-46
2023/10/22 08:32:52;;;;;;;12.82;3.35;;;;;;;25.43;33.11;98251.31;5091582;28;20016;-46
2023/10/22 08:35:18;;;;;;;5.25;2.50;;;;;;;25.50;33.41;98259.75;5091547;28;20055;-46
2023/10/22 08:37:44;;;;;;;8.85;2.67;;;;;;;25.94;32.87;98263.44;5091187;28;20094;-46
2023/10/22 08:40:10;;;;;;;5.97;3.13;;;;;;;26.25;32.33;98262.53;5091184;28;20024;-46
2023/10/22 08:42:37;;;;;;;4.88;1.88;;;;;;;26.34;31.99;98266.03;5092384;28;20464;-47
2023/10/22 08:45:04;;;;;;;9.18;3.05;;;;;;;26.90;31.42;98277.81;5092457;28;20109;-46
2023/10/22 08:47:30;;;;;;;5.68;1.80;;;;;;;26.88;31.20;98268.44;5091005;28;20031;-46
2023/10/22 08:49:56;;;;;;;11.40;3.70;;;;;;;26.96;31.06;98267.66;5091049;28;20048;-46
2023/10/22 08:52:25;;;;;;;5.85;2.20;;;;;;;26.87;31.19;98267.66;5090924;28;20105;-46
2023/10/22 08:54:51;;;;;;;11.93;3.15;;;;;;;26.89;30.97;98270.03;5092198;28;20024;-46
2023/10/22 08:57:20;;;;;;;13.77;3.08;;;;;;;26.76;31.58;98273.69;5092462;28;20366;-46
2023/10/22 08:59:47;;;;;;;18.50;3.15;;;;;;;26.60;31.66;98276.06;5090877;28;20032;-46
2023/10/22 09:02:21;;;;;;;17.15;2.95;;;;;;;26.36;32.01;98271.91;5092097;28;20020;-46
2023/10/22 09:04:47;;;;;;;15.65;3.78;;;;;;;26.38;31.84;98277.75;5090883;28;20063;-46
2023/10/22 09:07:13;;;;;;;14.90;3.20;;;;;;;26.43;32.07;98280.28;5073885;28;20066;-47
2023/10/22 09:09:39;;;;;;;33.30;4.22;;;;;;;26.51;33.17;98282.19;5090398;28;20093;-47
2023/10/22 09:12:16;;;;;;;10.77;2.00;;;;;;;26.32;32.29;98279.03;5090972;28;20104;-46
2023/10/22 09:14:44;;;;;;;21.63;3.70;;;;;;;26.44;33.43;98281.06;5090691;28;20035;-46
2023/10/22 09:17:17;;;;;;;19.90;3.67;;;;;;;26.45;33.27;98278.06;5091461;28;20036;-46
2023/10/22 09:19:47;;;;;;;9.68;1.60;;;;;;;27.06;31.63;98263.84;5074033;28;20032;-46
2023/10/22 09:22:24;;;;;;;20.63;3.95;;;;;;;27.74;31.69;98255.91;5091831;28;20071;-46
2023/10/22 09:24:56;;;;;;;3.25;1.25;;;;;;;28.21;30.11;98261.25;5091853;28;20032;-47
2023/10/22 09:27:26;;;;;;;17.40;7.53;;;;;;;28.33;29.44;98265.13;5091796;28;20111;-47
2023/10/22 09:29:53;;;;;;;34.20;25.50;;;;;;;28.69;29.41;98256.44;5091968;28;20024;-47
2023/10/22 09:32:22;;;;;;;4.93;2.22;;;;;;;29.26;28.12;98257.72;5091739;28;20024;-47
2023/10/22 09:34:48;;;;;;;5.72;1.98;;;;;;;30.04;27.24;98256.78;5091806;28;20428;-47
2023/10/22 09:37:13;;;;;;;7.18;1.88;;;;;;;30.38;26.73;98253.91;5091990;28;20032;-47
2023/10/22 09:39:44;;;;;;;5.25;1.40;;;;;;;30.14;26.48;98257.44;5090397;28;20059;-47
2023/10/22 09:42:11;;;;;;;6.28;1.30;;;;;;;29.87;26.30;98263.19;5091670;28;20081;-46
2023/10/22 09:44:46;;;;;;;9.57;3.00;;;;;;;30.03;26.63;98263.31;5091684;28;20559;-47
2023/10/22 09:47:17;;;;;;;;;;;;;;;30.41;27.03;98261.38;5090776;28;20024;-47
2023/10/22 09:49:48;;;;;;;2.88;1.50;;;;;;;30.46;25.38;98258.41;5090334;28;19916;-46
2023/10/22 09:52:16;;;;;;;7.50;2.67;;;;;;;30.55;25.17;98256.34;5091636;28;20103;-46
2023/10/22 09:54:42;;;;;;;5.55;2.67;;;;;;;30.66;25.14;98257.44;5090317;28;20028;-47
2023/10/22 09:57:14;;;;;;;6.60;2.60;;;;;;;30.55;24.96;98253.66;5090238;28;20073;-46
2023/10/22 09:59:41;;;;;;;10.02;2.38;;;;;;;30.39;25.19;98250.88;5091586;28;20035;-47
2023/10/22 10:02:15;;;;;;;7.15;2.33;;;;;;;30.31;25.78;98254.50;5090222;28;20024;-47
2023/10/22 10:04:43;;;;;;;5.38;1.48;;;;;;;30.11;25.04;98250.00;5091558;28;20100;-46
2023/10/22 10:07:10;;;;;;;8.18;2.42;;;;;;;29.73;25.84;98245.72;5091425;28;20056;-47
2023/10/22 10:09:36;;;;;;;8.52;2.15;;;;;;;29.53;25.64;98231.94;5091185;28;20071;-47
2023/10/22 10:12:08;;;;;;;3.40;1.98;;;;;;;29.13;25.69;98231.78;5090186;28;20113;-47
2023/10/22 10:14:38;;;;;;;11.85;3.05;;;;;;;29.20;26.06;98240.13;5091401;28;20031;-46
2023/10/22 10:17:04;;;;;;;4.53;1.35;;;;;;;29.37;25.01;98237.22;5091298;28;20024;-46
2023/10/22 10:19:30;;;;;;;4.40;1.20;;;;;;;29.22;25.64;98241.38;5090080;28;20024;-47
2023/10/22 10:21:56;;;;;;;3.22;1.30;;;;;;;29.03;25.42;98233.72;5091294;28;20027;-46
2023/10/22 10:24:24;;;;;;;6.78;2.25;;;;;;;28.99;26.12;98242.84;5089962;28;20133;-46
2023/10/22 10:26:51;;;;;;;4.82;2.28;;;;;;;29.07;25.77;98239.25;5073534;28;20035;-47
2023/10/22 10:29:21;;;;;;;5.68;2.30;;;;;;;28.98;25.97;98233.16;5093050;28;20027;-47
2023/10/22 10:31:50;;;;;;;4.68;1.75;;;;;;;29.33;24.57;98233.59;5095044;28;20024;-46
2023/10/22 10:34:34;;;;;;;2.08;0.93;;;;;;;29.73;23.49;98230.28;5094913;28;20506;-47
2023/10/22 10:37:32;;;;;;;2.53;0.80;;;;;;;30.21;23.23;98234.06;5094885;28;20050;-47
2023/10/22 10:39:57;;;;;;;2.78;0.98;;;;;;;30.41;22.53;98228.88;5060061;28;20410;-47
2023/10/22 10:42:29;;;;;;;1.58;0.75;;;;;;;29.96;22.56;98233.34;5093420;28;20038;-47
2023/10/22 10:44:58;;;;;;;8.55;1.83;;;;;;;29.53;23.38;98236.56;5094715;28;20547;-46
2023/10/22 10:47:30;;;;;;;5.50;1.25;;;;;;;29.62;23.34;98238.03;5094609;28;20026;-46
2023/10/22 10:50:12;;;;;;;3.58;1.10;;;;;;;30.31;22.56;98238.25;5094633;28;20500;-47
2023/10/22 10:52:37;;;;;;;6.40;2.40;;;;;;;30.21;22.88;98230.59;5094612;28;20035;-47
2023/10/22 10:55:18;;;;;;;2.13;0.70;;;;;;;29.64;22.89;98232.28;5093179;28;20024;-46
2023/10/22 10:57:50;;;;;;;4.07;1.10;;;;;;;28.90;23.61;98228.66;5094482;28;20401;-46
2023/10/22 11:00:20;;;;;;;5.78;1.30;;;;;;;28.32;24.43;98229.25;5077023;28;20401;-46
2023/10/22 11:02:50;;;;;;;9.02;2.00;;;;;;;28.17;24.88;98227.13;5094437;28;20051;-46
2023/10/22 11:05:29;;;;;;;3.53;1.73;;;;;;;27.72;24.85;98227.69;5094427;28;20416;-47
2023/10/22 11:07:55;;;;;;;4.82;1.30;;;;;;;27.09;25.17;98223.59;5094421;28;20028;-47
2023/10/22 11:10:21;;;;;;;4.63;1.92;;;;;;;26.76;26.10;98222.53;5093880;28;20048;-47
2023/10/22 11:12:47;;;;;;;2.70;1.50;;;;;;;26.31;26.65;98226.31;5093262;28;20122;-47
2023/10/22 11:15:13;;;;;;;5.30;1.83;;;;;;;25.96;26.80;98223.56;5093106;28;20027;-46
2023/10/22 11:17:45;;;;;;;5.15;1.23;;;;;;;26.07;26.66;98234.81;5092813;28;20111;-46
2023/10/22 11:20:13;;;;;;;4.65;1.15;;;;;;;26.94;26.31;98228.69;5093118;28;20085;-47
2023/10/22 11:22:39;;;;;;;3.05;1.00;;;;;;;28.22;25.09;98210.75;5092847;28;20023;-47
2023/10/22 11:25:10;;;;;;;3.58;0.90;;;;;;;28.94;23.84;98207.94;5092586;28;20394;-47
2023/10/22 11:27:37;;;;;;;5.32;2.28;;;;;;;28.68;24.16;98207.06;5092691;28;20028;-47
2023/10/22 11:30:03;;;;;;;3.63;2.00;;;;;;;28.29;24.15;98206.41;5093728;28;20428;-46
2023/10/22 11:32:29;;;;;;;5.10;1.52;;;;;;;27.79;24.68;98220.66;5092509;28;20143;-47